Terminal Aerodrome Forecast
Issued by NWS

Home | Current Version | Previous Version | Text Only | Print | Product List | Glossary On
Versions: 1 2 3 4 5 6 7 8 9 10 11 12 13 14 15
000
FTUS43 KICT 252324
TAFSLN
TAF
KSLN 252324Z 2600/2624 08006KT P6SM SKC
     FM260800 10003KT 6SM BR SCT030
     FM261000 10003KT 5SM BR SCT020
     FM261500 14006KT P6SM SCT150
     FM261800 14011KT P6SM FEW250=

USA.gov is the U.S. government's official web portal to all federal, state and local government web resources and services.